sensor_id;sensor_type;location;lat;lon;timestamp;temperature;humidity
60313;DHT22;46158;52.850;6.970;2022-12-19T00:01:47;11.90;68.80
60313;DHT22;46158;52.850;6.970;2022-12-19T00:04:12;11.90;68.80
60313;DHT22;46158;52.850;6.970;2022-12-19T00:06:44;11.90;68.70
60313;DHT22;46158;52.850;6.970;2022-12-19T00:09:10;11.80;68.60
60313;DHT22;46158;52.850;6.970;2022-12-19T00:11:36;11.80;68.50
60313;DHT22;46158;52.850;6.970;2022-12-19T00:14:03;11.80;68.50
60313;DHT22;46158;52.850;6.970;2022-12-19T00:16:28;11.80;68.50
60313;DHT22;46158;52.850;6.970;2022-12-19T00:18:55;11.80;68.40
60313;DHT22;46158;52.850;6.970;2022-12-19T00:21:22;11.80;68.30
60313;DHT22;46158;52.850;6.970;2022-12-19T00:23:48;11.80;68.30
60313;DHT22;46158;52.850;6.970;2022-12-19T00:28:43;11.70;68.20
60313;DHT22;46158;52.850;6.970;2022-12-19T00:31:09;11.70;68.20
60313;DHT22;46158;52.850;6.970;2022-12-19T00:33:37;11.70;68.30
60313;DHT22;46158;52.850;6.970;2022-12-19T00:36:06;11.70;68.20
60313;DHT22;46158;52.850;6.970;2022-12-19T00:38:32;11.70;68.20
60313;DHT22;46158;52.850;6.970;2022-12-19T00:43:36;11.70;68.20
60313;DHT22;46158;52.850;6.970;2022-12-19T00:46:02;11.70;68.20
60313;DHT22;46158;52.850;6.970;2022-12-19T00:48:29;11.70;68.10
60313;DHT22;46158;52.850;6.970;2022-12-19T00:50:58;11.70;68.10
60313;DHT22;46158;52.850;6.970;2022-12-19T00:53:24;11.60;68.00
60313;DHT22;46158;52.850;6.970;2022-12-19T00:55:50;11.60;68.60
60313;DHT22;46158;52.850;6.970;2022-12-19T00:58:15;11.60;67.90
60313;DHT22;46158;52.850;6.970;2022-12-19T01:00:41;11.60;67.80
60313;DHT22;46158;52.850;6.970;2022-12-19T01:03:07;11.60;67.80
60313;DHT22;46158;52.850;6.970;2022-12-19T01:05:32;11.60;67.70
60313;DHT22;46158;52.850;6.970;2022-12-19T01:07:58;11.60;67.70
60313;DHT22;46158;52.850;6.970;2022-12-19T01:10:23;11.60;67.70
60313;DHT22;46158;52.850;6.970;2022-12-19T01:12:49;11.60;67.60
60313;DHT22;46158;52.850;6.970;2022-12-19T01:15:15;11.60;67.60
60313;DHT22;46158;52.850;6.970;2022-12-19T01:17:42;11.60;67.60
60313;DHT22;46158;52.850;6.970;2022-12-19T01:20:08;11.60;67.60
60313;DHT22;46158;52.850;6.970;2022-12-19T01:22:34;11.60;67.50
60313;DHT22;46158;52.850;6.970;2022-12-19T01:25:00;11.60;68.20
60313;DHT22;46158;52.850;6.970;2022-12-19T01:27:28;11.50;67.40
60313;DHT22;46158;52.850;6.970;2022-12-19T01:29:55;11.50;67.30
60313;DHT22;46158;52.850;6.970;2022-12-19T01:32:20;11.50;67.30
60313;DHT22;46158;52.850;6.970;2022-12-19T01:34:46;11.50;67.30
60313;DHT22;46158;52.850;6.970;2022-12-19T01:37:12;11.50;67.20
60313;DHT22;46158;52.850;6.970;2022-12-19T01:39:41;11.50;67.20
60313;DHT22;46158;52.850;6.970;2022-12-19T01:42:13;11.50;67.20
60313;DHT22;46158;52.850;6.970;2022-12-19T01:44:39;11.50;67.20
60313;DHT22;46158;52.850;6.970;2022-12-19T01:47:04;11.50;67.10
60313;DHT22;46158;52.850;6.970;2022-12-19T01:49:35;11.40;67.00
60313;DHT22;46158;52.850;6.970;2022-12-19T01:52:05;11.50;67.10
60313;DHT22;46158;52.850;6.970;2022-12-19T01:54:32;11.40;67.00
60313;DHT22;46158;52.850;6.970;2022-12-19T01:56:59;11.40;67.00
60313;DHT22;46158;52.850;6.970;2022-12-19T01:59:27;11.40;67.00
60313;DHT22;46158;52.850;6.970;2022-12-19T02:01:55;11.40;66.90
60313;DHT22;46158;52.850;6.970;2022-12-19T02:04:24;11.40;66.80
60313;DHT22;46158;52.850;6.970;2022-12-19T02:06:50;11.40;66.80
60313;DHT22;46158;52.850;6.970;2022-12-19T02:09:16;11.40;66.80
60313;DHT22;46158;52.850;6.970;2022-12-19T02:11:41;11.40;66.70
60313;DHT22;46158;52.850;6.970;2022-12-19T02:14:07;11.40;66.70
60313;DHT22;46158;52.850;6.970;2022-12-19T02:27:25;11.30;66.90
60313;DHT22;46158;52.850;6.970;2022-12-19T02:29:47;11.30;67.00
60313;DHT22;46158;52.850;6.970;2022-12-19T02:34:45;11.30;67.00
60313;DHT22;46158;52.850;6.970;2022-12-19T02:37:17;11.30;67.00
60313;DHT22;46158;52.850;6.970;2022-12-19T02:39:55;11.30;67.00
60313;DHT22;46158;52.850;6.970;2022-12-19T02:42:34;11.30;67.00
60313;DHT22;46158;52.850;6.970;2022-12-19T02:45:00;11.20;67.00
60313;DHT22;46158;52.850;6.970;2022-12-19T02:47:26;11.20;66.90
60313;DHT22;46158;52.850;6.970;2022-12-19T02:49:53;11.20;66.90
60313;DHT22;46158;52.850;6.970;2022-12-19T02:54:44;11.20;67.00
60313;DHT22;46158;52.850;6.970;2022-12-19T02:59:43;11.30;67.00
60313;DHT22;46158;52.850;6.970;2022-12-19T03:02:16;11.20;66.90
60313;DHT22;46158;52.850;6.970;2022-12-19T03:04:58;11.20;66.90
60313;DHT22;46158;52.850;6.970;2022-12-19T03:09:56;11.30;67.00
60313;DHT22;46158;52.850;6.970;2022-12-19T03:12:34;11.20;66.90
60313;DHT22;46158;52.850;6.970;2022-12-19T03:15:02;11.30;66.90
60313;DHT22;46158;52.850;6.970;2022-12-19T03:17:28;11.20;66.90
60313;DHT22;46158;52.850;6.970;2022-12-19T03:19:58;11.30;66.90
60313;DHT22;46158;52.850;6.970;2022-12-19T03:22:24;11.30;66.90
60313;DHT22;46158;52.850;6.970;2022-12-19T03:24:49;11.30;66.90
60313;DHT22;46158;52.850;6.970;2022-12-19T03:27:18;11.20;66.70
60313;DHT22;46158;52.850;6.970;2022-12-19T03:29:52;11.20;66.80
60313;DHT22;46158;52.850;6.970;2022-12-19T03:32:19;11.20;66.70
60313;DHT22;46158;52.850;6.970;2022-12-19T03:34:48;11.30;66.80
60313;DHT22;46158;52.850;6.970;2022-12-19T03:37:20;11.30;66.80
60313;DHT22;46158;52.850;6.970;2022-12-19T03:39:48;11.20;66.70
60313;DHT22;46158;52.850;6.970;2022-12-19T03:42:15;11.20;66.70
60313;DHT22;46158;52.850;6.970;2022-12-19T03:45:01;11.20;66.70
60313;DHT22;46158;52.850;6.970;2022-12-19T03:47:33;11.20;66.70
60313;DHT22;46158;52.850;6.970;2022-12-19T03:49:59;11.20;66.70
60313;DHT22;46158;52.850;6.970;2022-12-19T03:52:27;11.20;66.70
60313;DHT22;46158;52.850;6.970;2022-12-19T03:55:03;11.20;66.70
60313;DHT22;46158;52.850;6.970;2022-12-19T03:57:33;11.20;66.70
60313;DHT22;46158;52.850;6.970;2022-12-19T04:00:12;11.20;66.60
60313;DHT22;46158;52.850;6.970;2022-12-19T04:02:40;11.20;66.60
60313;DHT22;46158;52.850;6.970;2022-12-19T04:05:07;11.20;66.60
60313;DHT22;46158;52.850;6.970;2022-12-19T04:07:35;11.20;66.60
60313;DHT22;46158;52.850;6.970;2022-12-19T04:10:03;11.20;66.60
60313;DHT22;46158;52.850;6.970;2022-12-19T04:12:30;11.20;66.60
60313;DHT22;46158;52.850;6.970;2022-12-19T04:14:58;11.20;66.80
60313;DHT22;46158;52.850;6.970;2022-12-19T04:25:17;11.20;66.70
60313;DHT22;46158;52.850;6.970;2022-12-19T04:27:49;11.20;66.70
60313;DHT22;46158;52.850;6.970;2022-12-19T04:30:16;11.20;67.40
60313;DHT22;46158;52.850;6.970;2022-12-19T04:32:42;11.30;66.80
60313;DHT22;46158;52.850;6.970;2022-12-19T04:35:08;11.20;66.70
60313;DHT22;46158;52.850;6.970;2022-12-19T04:37:34;11.20;66.70
60313;DHT22;46158;52.850;6.970;2022-12-19T04:39:59;11.20;66.70
60313;DHT22;46158;52.850;6.970;2022-12-19T04:42:25;11.20;66.70
60313;DHT22;46158;52.850;6.970;2022-12-19T04:44:50;11.20;66.60
60313;DHT22;46158;52.850;6.970;2022-12-19T04:47:16;11.20;66.60
60313;DHT22;46158;52.850;6.970;2022-12-19T04:49:43;11.20;66.60
60313;DHT22;46158;52.850;6.970;2022-12-19T04:52:09;11.20;66.60
60313;DHT22;46158;52.850;6.970;2022-12-19T04:54:34;11.20;66.60
60313;DHT22;46158;52.850;6.970;2022-12-19T04:57:00;11.20;66.60
60313;DHT22;46158;52.850;6.970;2022-12-19T04:59:25;11.20;66.70
60313;DHT22;46158;52.850;6.970;2022-12-19T05:01:51;11.20;66.60
60313;DHT22;46158;52.850;6.970;2022-12-19T05:04:17;11.20;66.60
60313;DHT22;46158;52.850;6.970;2022-12-19T05:06:43;11.20;66.60
60313;DHT22;46158;52.850;6.970;2022-12-19T05:09:09;11.20;66.50
60313;DHT22;46158;52.850;6.970;2022-12-19T05:11:35;11.20;66.50
60313;DHT22;46158;52.850;6.970;2022-12-19T05:14:01;11.20;66.50
60313;DHT22;46158;52.850;6.970;2022-12-19T05:16:26;11.20;66.60
60313;DHT22;46158;52.850;6.970;2022-12-19T05:18:52;11.20;66.60
60313;DHT22;46158;52.850;6.970;2022-12-19T05:21:19;11.20;66.70
60313;DHT22;46158;52.850;6.970;2022-12-19T05:23:45;11.20;67.00
60313;DHT22;46158;52.850;6.970;2022-12-19T05:26:11;11.20;67.10
60313;DHT22;46158;52.850;6.970;2022-12-19T05:28:37;11.30;67.30
60313;DHT22;46158;52.850;6.970;2022-12-19T05:31:09;11.30;67.50
60313;DHT22;46158;52.850;6.970;2022-12-19T05:33:36;11.30;67.50
60313;DHT22;46158;52.850;6.970;2022-12-19T05:36:03;11.30;67.70
60313;DHT22;46158;52.850;6.970;2022-12-19T05:38:29;11.40;67.80
60313;DHT22;46158;52.850;6.970;2022-12-19T05:41:13;11.40;67.90
60313;DHT22;46158;52.850;6.970;2022-12-19T05:43:40;11.40;68.10
60313;DHT22;46158;52.850;6.970;2022-12-19T05:46:06;11.40;68.20
60313;DHT22;46158;52.850;6.970;2022-12-19T05:48:32;11.40;68.40
60313;DHT22;46158;52.850;6.970;2022-12-19T05:50:57;11.50;68.50
60313;DHT22;46158;52.850;6.970;2022-12-19T05:53:23;11.50;68.70
60313;DHT22;46158;52.850;6.970;2022-12-19T05:55:49;11.50;68.60
60313;DHT22;46158;52.850;6.970;2022-12-19T05:58:15;11.50;68.70
60313;DHT22;46158;52.850;6.970;2022-12-19T06:00:43;11.50;68.70
60313;DHT22;46158;52.850;6.970;2022-12-19T06:03:09;11.60;68.90
60313;DHT22;46158;52.850;6.970;2022-12-19T06:05:35;11.60;69.00
60313;DHT22;46158;52.850;6.970;2022-12-19T06:08:01;11.60;69.10
60313;DHT22;46158;52.850;6.970;2022-12-19T06:10:27;11.60;69.30
60313;DHT22;46158;52.850;6.970;2022-12-19T06:12:52;11.60;69.40
60313;DHT22;46158;52.850;6.970;2022-12-19T06:15:18;11.60;69.40
60313;DHT22;46158;52.850;6.970;2022-12-19T06:17:43;11.70;69.50
60313;DHT22;46158;52.850;6.970;2022-12-19T06:20:12;11.70;69.70
60313;DHT22;46158;52.850;6.970;2022-12-19T06:22:38;11.70;69.90
60313;DHT22;46158;52.850;6.970;2022-12-19T06:25:04;11.80;69.90
60313;DHT22;46158;52.850;6.970;2022-12-19T06:27:30;11.80;70.00
60313;DHT22;46158;52.850;6.970;2022-12-19T06:29:56;11.90;70.20
60313;DHT22;46158;52.850;6.970;2022-12-19T06:32:22;11.90;70.10
60313;DHT22;46158;52.850;6.970;2022-12-19T06:34:48;11.90;70.20
60313;DHT22;46158;52.850;6.970;2022-12-19T06:37:13;11.90;70.10
60313;DHT22;46158;52.850;6.970;2022-12-19T06:39:39;12.00;70.20
60313;DHT22;46158;52.850;6.970;2022-12-19T06:42:05;12.00;70.10
60313;DHT22;46158;52.850;6.970;2022-12-19T06:44:49;12.10;70.20
60313;DHT22;46158;52.850;6.970;2022-12-19T06:47:15;12.10;70.10
60313;DHT22;46158;52.850;6.970;2022-12-19T06:49:41;12.10;70.20
60313;DHT22;46158;52.850;6.970;2022-12-19T06:52:07;12.20;70.10
60313;DHT22;46158;52.850;6.970;2022-12-19T06:54:33;12.20;70.10
60313;DHT22;46158;52.850;6.970;2022-12-19T06:57:03;12.20;70.00
60313;DHT22;46158;52.850;6.970;2022-12-19T06:59:29;12.30;70.00
60313;DHT22;46158;52.850;6.970;2022-12-19T07:04:27;12.30;69.90
60313;DHT22;46158;52.850;6.970;2022-12-19T07:06:56;12.40;69.90
60313;DHT22;46158;52.850;6.970;2022-12-19T07:09:24;12.40;69.80
60313;DHT22;46158;52.850;6.970;2022-12-19T07:11:54;12.40;69.80
60313;DHT22;46158;52.850;6.970;2022-12-19T07:14:22;12.40;69.70
60313;DHT22;46158;52.850;6.970;2022-12-19T07:16:48;12.40;69.70
60313;DHT22;46158;52.850;6.970;2022-12-19T07:19:15;12.50;69.70
60313;DHT22;46158;52.850;6.970;2022-12-19T07:21:40;12.40;69.70
60313;DHT22;46158;52.850;6.970;2022-12-19T07:24:06;12.50;69.60
60313;DHT22;46158;52.850;6.970;2022-12-19T07:26:32;12.50;69.60
60313;DHT22;46158;52.850;6.970;2022-12-19T07:29:04;12.50;69.60
60313;DHT22;46158;52.850;6.970;2022-12-19T07:31:37;12.50;69.50
60313;DHT22;46158;52.850;6.970;2022-12-19T07:34:02;12.60;69.50
60313;DHT22;46158;52.850;6.970;2022-12-19T07:36:28;12.50;69.40
60313;DHT22;46158;52.850;6.970;2022-12-19T07:38:54;12.60;69.40
60313;DHT22;46158;52.850;6.970;2022-12-19T07:41:20;12.60;69.40
60313;DHT22;46158;52.850;6.970;2022-12-19T07:43:46;12.60;69.50
60313;DHT22;46158;52.850;6.970;2022-12-19T07:46:14;12.60;69.50
60313;DHT22;46158;52.850;6.970;2022-12-19T07:48:40;12.60;69.50
60313;DHT22;46158;52.850;6.970;2022-12-19T07:51:05;12.70;69.70
60313;DHT22;46158;52.850;6.970;2022-12-19T07:53:31;12.70;69.80
60313;DHT22;46158;52.850;6.970;2022-12-19T07:55:57;12.70;69.80
60313;DHT22;46158;52.850;6.970;2022-12-19T07:58:23;12.70;69.90
60313;DHT22;46158;52.850;6.970;2022-12-19T08:00:58;12.70;70.00
60313;DHT22;46158;52.850;6.970;2022-12-19T08:03:25;12.70;70.10
60313;DHT22;46158;52.850;6.970;2022-12-19T08:05:57;12.70;70.10
60313;DHT22;46158;52.850;6.970;2022-12-19T08:08:23;12.80;70.20
60313;DHT22;46158;52.850;6.970;2022-12-19T08:10:49;12.70;70.20
60313;DHT22;46158;52.850;6.970;2022-12-19T08:13:15;12.80;70.30
60313;DHT22;46158;52.850;6.970;2022-12-19T08:15:40;12.80;70.40
60313;DHT22;46158;52.850;6.970;2022-12-19T08:18:06;12.80;70.40
60313;DHT22;46158;52.850;6.970;2022-12-19T08:20:34;12.90;70.50
60313;DHT22;46158;52.850;6.970;2022-12-19T08:22:59;12.90;70.50
60313;DHT22;46158;52.850;6.970;2022-12-19T08:25:25;12.90;70.60
60313;DHT22;46158;52.850;6.970;2022-12-19T08:27:51;12.90;70.60
60313;DHT22;46158;52.850;6.970;2022-12-19T08:30:17;12.90;70.60
60313;DHT22;46158;52.850;6.970;2022-12-19T08:32:50;12.90;70.70
60313;DHT22;46158;52.850;6.970;2022-12-19T08:35:25;12.90;70.50
60313;DHT22;46158;52.850;6.970;2022-12-19T08:37:52;12.90;70.50
60313;DHT22;46158;52.850;6.970;2022-12-19T08:40:17;12.90;70.40
60313;DHT22;46158;52.850;6.970;2022-12-19T08:42:43;12.90;70.40
60313;DHT22;46158;52.850;6.970;2022-12-19T08:45:12;13.00;70.50
60313;DHT22;46158;52.850;6.970;2022-12-19T08:47:38;13.00;70.50
60313;DHT22;46158;52.850;6.970;2022-12-19T08:50:04;13.00;70.50
60313;DHT22;46158;52.850;6.970;2022-12-19T08:52:33;13.00;70.30
60313;DHT22;46158;52.850;6.970;2022-12-19T08:54:59;13.00;70.30
60313;DHT22;46158;52.850;6.970;2022-12-19T08:57:25;13.00;70.20
60313;DHT22;46158;52.850;6.970;2022-12-19T08:59:51;13.00;70.20
60313;DHT22;46158;52.850;6.970;2022-12-19T09:02:16;13.00;70.10
60313;DHT22;46158;52.850;6.970;2022-12-19T09:04:46;13.00;70.00
60313;DHT22;46158;52.850;6.970;2022-12-19T09:07:11;13.00;69.90
60313;DHT22;46158;52.850;6.970;2022-12-19T09:09:38;12.90;69.80
60313;DHT22;46158;52.850;6.970;2022-12-19T09:12:07;13.00;69.80
60313;DHT22;46158;52.850;6.970;2022-12-19T09:14:33;12.90;69.80
60313;DHT22;46158;52.850;6.970;2022-12-19T09:17:02;13.00;69.80
60313;DHT22;46158;52.850;6.970;2022-12-19T09:19:28;13.00;69.80
60313;DHT22;46158;52.850;6.970;2022-12-19T09:21:54;12.90;69.80
60313;DHT22;46158;52.850;6.970;2022-12-19T09:24:20;12.90;69.80
60313;DHT22;46158;52.850;6.970;2022-12-19T09:26:45;12.90;69.70
60313;DHT22;46158;52.850;6.970;2022-12-19T09:29:11;12.90;69.80
60313;DHT22;46158;52.850;6.970;2022-12-19T09:31:37;12.90;69.80
60313;DHT22;46158;52.850;6.970;2022-12-19T09:34:03;12.90;69.80
60313;DHT22;46158;52.850;6.970;2022-12-19T09:36:29;12.90;69.90
60313;DHT22;46158;52.850;6.970;2022-12-19T09:38:58;12.90;70.00
60313;DHT22;46158;52.850;6.970;2022-12-19T09:49:08;12.90;70.30
60313;DHT22;46158;52.850;6.970;2022-12-19T09:51:37;12.90;70.30
60313;DHT22;46158;52.850;6.970;2022-12-19T09:54:08;12.90;70.40
60313;DHT22;46158;52.850;6.970;2022-12-19T09:56:37;12.90;70.50
60313;DHT22;46158;52.850;6.970;2022-12-19T09:59:07;12.90;70.60
60313;DHT22;46158;52.850;6.970;2022-12-19T10:01:49;12.90;70.70
60313;DHT22;46158;52.850;6.970;2022-12-19T10:04:16;12.90;70.70
60313;DHT22;46158;52.850;6.970;2022-12-19T10:06:43;12.90;70.80
60313;DHT22;46158;52.850;6.970;2022-12-19T10:09:12;12.90;70.80
60313;DHT22;46158;52.850;6.970;2022-12-19T10:11:43;12.90;70.80
60313;DHT22;46158;52.850;6.970;2022-12-19T10:19:57;13.00;70.90
60313;DHT22;46158;52.850;6.970;2022-12-19T10:25:16;13.00;70.90
60313;DHT22;46158;52.850;6.970;2022-12-19T10:28:01;13.00;70.90
60313;DHT22;46158;52.850;6.970;2022-12-19T10:30:35;13.00;70.90
60313;DHT22;46158;52.850;6.970;2022-12-19T10:33:11;13.00;71.60
60313;DHT22;46158;52.850;6.970;2022-12-19T10:35:42;13.00;70.90
60313;DHT22;46158;52.850;6.970;2022-12-19T10:38:23;13.00;70.90
60313;DHT22;46158;52.850;6.970;2022-12-19T10:43:28;13.00;71.00
60313;DHT22;46158;52.850;6.970;2022-12-19T10:46:00;13.00;71.00
60313;DHT22;46158;52.850;6.970;2022-12-19T10:48:27;13.00;71.00
60313;DHT22;46158;52.850;6.970;2022-12-19T10:50:54;13.00;70.90
60313;DHT22;46158;52.850;6.970;2022-12-19T10:53:24;13.00;70.90
60313;DHT22;46158;52.850;6.970;2022-12-19T10:55:51;13.00;70.80
60313;DHT22;46158;52.850;6.970;2022-12-19T10:58:34;13.00;70.70
60313;DHT22;46158;52.850;6.970;2022-12-19T11:03:30;13.00;70.60
60313;DHT22;46158;52.850;6.970;2022-12-19T11:05:56;13.00;70.70
60313;DHT22;46158;52.850;6.970;2022-12-19T11:08:26;13.00;70.70
60313;DHT22;46158;52.850;6.970;2022-12-19T11:10:57;13.00;70.60
60313;DHT22;46158;52.850;6.970;2022-12-19T11:16:01;13.00;70.50
60313;DHT22;46158;52.850;6.970;2022-12-19T11:18:47;13.00;70.50
60313;DHT22;46158;52.850;6.970;2022-12-19T11:21:16;13.00;70.50
60313;DHT22;46158;52.850;6.970;2022-12-19T11:26:39;13.00;70.40
60313;DHT22;46158;52.850;6.970;2022-12-19T11:29:19;13.00;70.30
60313;DHT22;46158;52.850;6.970;2022-12-19T11:31:45;13.00;70.40
60313;DHT22;46158;52.850;6.970;2022-12-19T11:34:16;13.00;70.40
60313;DHT22;46158;52.850;6.970;2022-12-19T11:39:14;13.00;70.50
60313;DHT22;46158;52.850;6.970;2022-12-19T11:41:43;13.00;70.80
60313;DHT22;46158;52.850;6.970;2022-12-19T11:46:56;13.00;70.60
60313;DHT22;46158;52.850;6.970;2022-12-19T11:49:27;13.00;70.60
60313;DHT22;46158;52.850;6.970;2022-12-19T11:52:17;13.00;71.30
60313;DHT22;46158;52.850;6.970;2022-12-19T11:57:15;13.00;70.60
60313;DHT22;46158;52.850;6.970;2022-12-19T11:59:40;13.00;70.60
60313;DHT22;46158;52.850;6.970;2022-12-19T12:07:37;13.00;70.70
60313;DHT22;46158;52.850;6.970;2022-12-19T12:10:12;13.00;70.80
60313;DHT22;46158;52.850;6.970;2022-12-19T12:28:51;13.10;71.30
60313;DHT22;46158;52.850;6.970;2022-12-19T12:31:24;13.00;71.20
60313;DHT22;46158;52.850;6.970;2022-12-19T12:36:35;13.10;71.90
60313;DHT22;46158;52.850;6.970;2022-12-19T12:39:16;13.10;71.10
60313;DHT22;46158;52.850;6.970;2022-12-19T12:44:38;13.10;71.10
60313;DHT22;46158;52.850;6.970;2022-12-19T12:49:40;13.10;71.10
60313;DHT22;46158;52.850;6.970;2022-12-19T12:52:13;13.10;71.10
60313;DHT22;46158;52.850;6.970;2022-12-19T12:54:40;13.10;71.10
60313;DHT22;46158;52.850;6.970;2022-12-19T12:57:31;13.10;71.20
60313;DHT22;46158;52.850;6.970;2022-12-19T13:02:46;13.10;71.20
60313;DHT22;46158;52.850;6.970;2022-12-19T13:07:59;13.10;71.30
60313;DHT22;46158;52.850;6.970;2022-12-19T13:10:31;13.10;71.30
60313;DHT22;46158;52.850;6.970;2022-12-19T13:13:07;13.10;71.30
60313;DHT22;46158;52.850;6.970;2022-12-19T13:20:46;13.10;71.30
60313;DHT22;46158;52.850;6.970;2022-12-19T13:23:19;13.10;71.30
60313;DHT22;46158;52.850;6.970;2022-12-19T13:25:48;13.10;71.30
60313;DHT22;46158;52.850;6.970;2022-12-19T13:28:41;13.20;71.40
60313;DHT22;46158;52.850;6.970;2022-12-19T13:39:14;13.20;71.70
60313;DHT22;46158;52.850;6.970;2022-12-19T13:41:46;13.20;71.70
60313;DHT22;46158;52.850;6.970;2022-12-19T13:44:30;13.20;71.70
60313;DHT22;46158;52.850;6.970;2022-12-19T13:47:05;13.20;71.70
60313;DHT22;46158;52.850;6.970;2022-12-19T13:49:34;13.20;71.70
60313;DHT22;46158;52.850;6.970;2022-12-19T13:52:00;13.20;71.70
60313;DHT22;46158;52.850;6.970;2022-12-19T13:54:32;13.20;71.80
60313;DHT22;46158;52.850;6.970;2022-12-19T13:56:59;13.20;71.80
60313;DHT22;46158;52.850;6.970;2022-12-19T13:59:26;13.20;71.80
60313;DHT22;46158;52.850;6.970;2022-12-19T14:01:52;13.20;71.80
60313;DHT22;46158;52.850;6.970;2022-12-19T14:04:38;13.20;71.80
60313;DHT22;46158;52.850;6.970;2022-12-19T14:07:05;13.20;71.80
60313;DHT22;46158;52.850;6.970;2022-12-19T14:09:45;13.30;71.80
60313;DHT22;46158;52.850;6.970;2022-12-19T14:12:16;13.20;71.70
60313;DHT22;46158;52.850;6.970;2022-12-19T14:17:49;13.30;71.70
60313;DHT22;46158;52.850;6.970;2022-12-19T14:20:34;13.30;71.60
60313;DHT22;46158;52.850;6.970;2022-12-19T14:23:00;13.30;71.60
60313;DHT22;46158;52.850;6.970;2022-12-19T14:25:33;13.30;71.50
60313;DHT22;46158;52.850;6.970;2022-12-19T14:28:06;13.30;71.50
60313;DHT22;46158;52.850;6.970;2022-12-19T14:30:34;13.30;71.40
60313;DHT22;46158;52.850;6.970;2022-12-19T14:33:05;13.30;71.40
60313;DHT22;46158;52.850;6.970;2022-12-19T14:35:36;13.30;71.30
60313;DHT22;46158;52.850;6.970;2022-12-19T14:38:04;13.30;71.30
60313;DHT22;46158;52.850;6.970;2022-12-19T14:40:31;13.30;71.30
60313;DHT22;46158;52.850;6.970;2022-12-19T14:43:01;13.30;71.30
60313;DHT22;46158;52.850;6.970;2022-12-19T14:45:46;13.30;71.20
60313;DHT22;46158;52.850;6.970;2022-12-19T14:48:29;13.30;71.20
60313;DHT22;46158;52.850;6.970;2022-12-19T14:53:34;13.30;71.20
60313;DHT22;46158;52.850;6.970;2022-12-19T14:56:04;13.30;71.30
60313;DHT22;46158;52.850;6.970;2022-12-19T14:58:31;13.30;71.30
60313;DHT22;46158;52.850;6.970;2022-12-19T15:00:58;13.30;71.40
60313;DHT22;46158;52.850;6.970;2022-12-19T15:03:25;13.30;71.40
60313;DHT22;46158;52.850;6.970;2022-12-19T15:05:52;13.30;72.20
60313;DHT22;46158;52.850;6.970;2022-12-19T15:08:28;13.30;71.50
60313;DHT22;46158;52.850;6.970;2022-12-19T15:11:02;13.30;71.50
60313;DHT22;46158;52.850;6.970;2022-12-19T15:13:53;13.30;71.60
60313;DHT22;46158;52.850;6.970;2022-12-19T15:16:26;13.30;71.60
60313;DHT22;46158;52.850;6.970;2022-12-19T15:18:54;13.30;71.70
60313;DHT22;46158;52.850;6.970;2022-12-19T15:21:23;13.30;71.70
60313;DHT22;46158;52.850;6.970;2022-12-19T15:23:50;13.30;71.70
60313;DHT22;46158;52.850;6.970;2022-12-19T15:26:20;13.30;71.90
60313;DHT22;46158;52.850;6.970;2022-12-19T15:28:58;13.30;71.80
60313;DHT22;46158;52.850;6.970;2022-12-19T15:33:53;13.40;71.90
60313;DHT22;46158;52.850;6.970;2022-12-19T15:36:19;13.40;71.70
60313;DHT22;46158;52.850;6.970;2022-12-19T15:38:45;13.40;71.70
60313;DHT22;46158;52.850;6.970;2022-12-19T15:41:12;13.40;71.70
60313;DHT22;46158;52.850;6.970;2022-12-19T15:43:53;13.40;71.70
60313;DHT22;46158;52.850;6.970;2022-12-19T15:46:18;13.40;71.70
60313;DHT22;46158;52.850;6.970;2022-12-19T15:48:46;13.40;71.60
60313;DHT22;46158;52.850;6.970;2022-12-19T15:51:13;13.40;71.60
60313;DHT22;46158;52.850;6.970;2022-12-19T15:53:39;13.40;71.60
60313;DHT22;46158;52.850;6.970;2022-12-19T15:56:07;13.40;71.60
60313;DHT22;46158;52.850;6.970;2022-12-19T15:58:40;13.40;71.60
60313;DHT22;46158;52.850;6.970;2022-12-19T16:01:06;13.40;71.60
60313;DHT22;46158;52.850;6.970;2022-12-19T16:03:43;13.40;71.50
60313;DHT22;46158;52.850;6.970;2022-12-19T16:06:12;13.40;71.40
60313;DHT22;46158;52.850;6.970;2022-12-19T16:08:38;13.40;71.40
60313;DHT22;46158;52.850;6.970;2022-12-19T16:11:04;13.40;71.40
60313;DHT22;46158;52.850;6.970;2022-12-19T16:13:31;13.40;71.40
60313;DHT22;46158;52.850;6.970;2022-12-19T16:16:00;13.40;71.30
60313;DHT22;46158;52.850;6.970;2022-12-19T16:18:28;13.40;71.30
60313;DHT22;46158;52.850;6.970;2022-12-19T16:20:53;13.40;71.30
60313;DHT22;46158;52.850;6.970;2022-12-19T16:23:21;13.40;71.30
60313;DHT22;46158;52.850;6.970;2022-12-19T16:25:58;13.40;71.30
60313;DHT22;46158;52.850;6.970;2022-12-19T16:28:31;13.40;71.30
60313;DHT22;46158;52.850;6.970;2022-12-19T16:30:59;13.40;71.20
60313;DHT22;46158;52.850;6.970;2022-12-19T16:33:25;13.40;71.30
60313;DHT22;46158;52.850;6.970;2022-12-19T16:35:55;13.40;71.30
60313;DHT22;46158;52.850;6.970;2022-12-19T16:38:21;13.40;71.30
60313;DHT22;46158;52.850;6.970;2022-12-19T16:40:49;13.40;71.30
60313;DHT22;46158;52.850;6.970;2022-12-19T16:46:08;13.40;71.30
60313;DHT22;46158;52.850;6.970;2022-12-19T16:48:40;13.40;71.40
60313;DHT22;46158;52.850;6.970;2022-12-19T16:51:06;13.40;71.40
60313;DHT22;46158;52.850;6.970;2022-12-19T16:53:37;13.40;71.40
60313;DHT22;46158;52.850;6.970;2022-12-19T16:56:02;13.40;71.40
60313;DHT22;46158;52.850;6.970;2022-12-19T16:58:31;13.40;71.40
60313;DHT22;46158;52.850;6.970;2022-12-19T17:00:57;13.40;71.40
60313;DHT22;46158;52.850;6.970;2022-12-19T17:05:48;13.40;71.40
60313;DHT22;46158;52.850;6.970;2022-12-19T17:08:14;13.40;71.40
60313;DHT22;46158;52.850;6.970;2022-12-19T17:10:51;13.40;71.40
60313;DHT22;46158;52.850;6.970;2022-12-19T17:13:16;13.40;71.40
60313;DHT22;46158;52.850;6.970;2022-12-19T17:15:47;13.40;71.40
60313;DHT22;46158;52.850;6.970;2022-12-19T17:18:22;13.40;71.40
60313;DHT22;46158;52.850;6.970;2022-12-19T17:20:55;13.40;71.40
60313;DHT22;46158;52.850;6.970;2022-12-19T17:23:22;13.40;71.40
60313;DHT22;46158;52.850;6.970;2022-12-19T17:25:48;13.40;71.50
60313;DHT22;46158;52.850;6.970;2022-12-19T17:28:14;13.40;71.50
60313;DHT22;46158;52.850;6.970;2022-12-19T17:30:41;13.40;71.50
60313;DHT22;46158;52.850;6.970;2022-12-19T17:33:11;13.40;71.50
60313;DHT22;46158;52.850;6.970;2022-12-19T17:35:51;13.40;71.50
60313;DHT22;46158;52.850;6.970;2022-12-19T17:38:20;13.40;71.50
60313;DHT22;46158;52.850;6.970;2022-12-19T17:40:46;13.40;71.50
60313;DHT22;46158;52.850;6.970;2022-12-19T17:43:15;13.40;71.50
60313;DHT22;46158;52.850;6.970;2022-12-19T17:45:45;13.40;71.60
60313;DHT22;46158;52.850;6.970;2022-12-19T17:48:31;13.40;71.80
60313;DHT22;46158;52.850;6.970;2022-12-19T17:51:02;13.40;71.80
60313;DHT22;46158;52.850;6.970;2022-12-19T17:53:28;13.40;71.90